KGNV/GNV METAR and TAF weather

Enter ICAO airport designator
Station Type Date Time Source
KGNV METAR 2019/02/23 00:53 UTC NOAA

KGNV 230053Z 00000KT 10SM SCT060 BKN110 25/19 A3018 RMK AO2 SLP217 T02500189


Station Type Date Time Source
KGNV Decoded METAR 2019/02/23 00:53 UTC NOAA

GAINESVILLE REGIONAL AIRPORT , FL, United States (KGNV) 29-42N 082-17W 45M
Feb 22, 2019 - 07:53 PM EST / 2019.02.23 0053 UTC
Wind: Calm:0
Visibility: 10 mile(s):0
Sky conditions: mostly cloudy
Temperature: 77.0 F (25.0 C)
Dew Point: 66.0 F (18.9 C)
Relative Humidity: 68%
Pressure (altimeter): 30.18 in. Hg (1022 hPa)
ob: KGNV 230053Z 00000KT 10SM SCT060 BKN110 25/19 A3018 RMK AO2 SLP217 T02500189
cycle: 1

Station Type Date Time Source
KGNV TAF 2019/02/22 21:42 UTC NOAA

TAF
AMD KGNV 222040Z 2221/2318 20005KT P6SM VCSH BKN040 OVC080
FM222300 VRB04KT P6SM FEW040 BKN080
FM231100 VRB02KT 2SM BR BKN005
FM231400 16007KT P6SM FEW010 BKN070


Example: see airport list